2026/08/05

Sensor Date Temp./Hum.
h4-hermonville 05-08-2026 - 23:58 22.7°C / 51.5%
h1-hermonville 05-08-2026 - 23:54 20.1°C / 59%
h3-hermonville 05-08-2026 - 23:50 21.8°C / 54%
h4-hermonville 05-08-2026 - 23:48 22.8°C / 50.5%
h2-hermonville 05-08-2026 - 23:44 22.3°C / 54%
h1-hermonville 05-08-2026 - 23:44 20.1°C / 59%
h3-hermonville 05-08-2026 - 23:40 21.8°C / 54%
h4-hermonville 05-08-2026 - 23:38 23°C / 51.5%
h2-hermonville 05-08-2026 - 23:34 22.5°C / 52.5%
h1-hermonville 05-08-2026 - 23:34 20.3°C / 59%
h3-hermonville 05-08-2026 - 23:30 21.8°C / 54%
h4-hermonville 05-08-2026 - 23:28 23°C / 52%
h2-hermonville 05-08-2026 - 23:24 22.4°C / 53.5%
h1-hermonville 05-08-2026 - 23:24 20.5°C / 59%
h3-hermonville 05-08-2026 - 23:20 22.2°C / 54.5%
h4-hermonville 05-08-2026 - 23:18 23.1°C / 52%
h2-hermonville 05-08-2026 - 23:14 22.9°C / 52.5%
h1-hermonville 05-08-2026 - 23:14 20.6°C / 59%
h3-hermonville 05-08-2026 - 23:10 22°C / 55%
h4-hermonville 05-08-2026 - 23:08 23.2°C / 51%
h2-hermonville 05-08-2026 - 23:04 23.4°C / 52%
h1-hermonville 05-08-2026 - 23:04 20.8°C / 58.5%
h3-hermonville 05-08-2026 - 23:00 22.1°C / 54%
h2-hermonville 05-08-2026 - 22:54 23.9°C / 52%
h1-hermonville 05-08-2026 - 22:54 21°C / 58.5%
h3-hermonville 05-08-2026 - 22:50 22.4°C / 54%
h4-hermonville 05-08-2026 - 22:48 23.5°C / 51.5%
h2-hermonville 05-08-2026 - 22:44 23.9°C / 51%
h1-hermonville 05-08-2026 - 22:44 21.1°C / 58%
h3-hermonville 05-08-2026 - 22:40 22.6°C / 53.5%
h4-hermonville 05-08-2026 - 22:38 23.6°C / 51%
h2-hermonville 05-08-2026 - 22:34 24°C / 52.5%
h1-hermonville 05-08-2026 - 22:34 21.4°C / 58%
h3-hermonville 05-08-2026 - 22:30 22.8°C / 54%
h4-hermonville 05-08-2026 - 22:28 23.8°C / 51.5%
h2-hermonville 05-08-2026 - 22:24 24.4°C / 51%
h1-hermonville 05-08-2026 - 22:24 21.8°C / 57%
h3-hermonville 05-08-2026 - 22:20 23.3°C / 53.5%
h4-hermonville 05-08-2026 - 22:18 23.9°C / 51.5%
h2-hermonville 05-08-2026 - 22:14 24.6°C / 51.5%
h1-hermonville 05-08-2026 - 22:14 22.1°C / 57.5%
h3-hermonville 05-08-2026 - 22:10 23.5°C / 53%
h4-hermonville 05-08-2026 - 22:08 24.1°C / 51%
h1-hermonville 05-08-2026 - 22:04 22.6°C / 56%
h3-hermonville 05-08-2026 - 22:00 23.8°C / 52.5%
h4-hermonville 05-08-2026 - 21:58 24.3°C / 50.5%
h1-hermonville 05-08-2026 - 21:54 22.9°C / 54.5%
h3-hermonville 05-08-2026 - 21:50 23.8°C / 51.5%
h4-hermonville 05-08-2026 - 21:48 24.4°C / 49.5%
h2-hermonville 05-08-2026 - 21:44 25.5°C / 48%
h1-hermonville 05-08-2026 - 21:44 23.1°C / 53.5%
h3-hermonville 05-08-2026 - 21:40 24°C / 51%
h4-hermonville 05-08-2026 - 21:38 24.5°C / 49%
h2-hermonville 05-08-2026 - 21:34 25.8°C / 47%
h1-hermonville 05-08-2026 - 21:34 23.3°C / 52.5%
h3-hermonville 05-08-2026 - 21:30 24°C / 49.5%
h4-hermonville 05-08-2026 - 21:28 24.5°C / 48%
h2-hermonville 05-08-2026 - 21:24 26.1°C / 46.5%
h1-hermonville 05-08-2026 - 21:24 23.6°C / 51.5%
h3-hermonville 05-08-2026 - 21:20 24.2°C / 49%
h4-hermonville 05-08-2026 - 21:18 24.7°C / 47.5%
h2-hermonville 05-08-2026 - 21:14 26°C / 47.5%
h1-hermonville 05-08-2026 - 21:14 23.8°C / 50.5%
h3-hermonville 05-08-2026 - 21:10 24.6°C / 48%
h4-hermonville 05-08-2026 - 21:08 24.9°C / 47.5%
h2-hermonville 05-08-2026 - 21:04 26°C / 46%
h1-hermonville 05-08-2026 - 21:04 24°C / 50%
h3-hermonville 05-08-2026 - 21:00 24.8°C / 48%
h4-hermonville 05-08-2026 - 20:58 25°C / 47.5%
h2-hermonville 05-08-2026 - 20:54 26.1°C / 46%
h1-hermonville 05-08-2026 - 20:54 24.3°C / 50%
h4-hermonville 05-08-2026 - 20:48 25.2°C / 47%
h2-hermonville 05-08-2026 - 20:44 26.7°C / 44.5%
h1-hermonville 05-08-2026 - 20:44 24.5°C / 48.5%
h3-hermonville 05-08-2026 - 20:40 25.1°C / 46.5%
h4-hermonville 05-08-2026 - 20:38 25.3°C / 46%
h2-hermonville 05-08-2026 - 20:34 26.8°C / 43.5%
h1-hermonville 05-08-2026 - 20:34 24.7°C / 48.5%
h3-hermonville 05-08-2026 - 20:30 25.2°C / 46.5%
h4-hermonville 05-08-2026 - 20:28 25.4°C / 45.5%
h2-hermonville 05-08-2026 - 20:24 27.4°C / 43.5%
h1-hermonville 05-08-2026 - 20:24 24.9°C / 47.5%
h3-hermonville 05-08-2026 - 20:20 25.3°C / 46%
h4-hermonville 05-08-2026 - 20:18 25.4°C / 45.5%
h2-hermonville 05-08-2026 - 20:14 27.8°C / 41.5%
h1-hermonville 05-08-2026 - 20:14 25.1°C / 46.5%
h3-hermonville 05-08-2026 - 20:10 25.4°C / 45.5%
h4-hermonville 05-08-2026 - 20:08 25.5°C / 44.5%
h2-hermonville 05-08-2026 - 20:04 29.5°C / 38.5%
h1-hermonville 05-08-2026 - 20:04 25.2°C / 46.5%
h3-hermonville 05-08-2026 - 20:00 25.6°C / 45.5%
h4-hermonville 05-08-2026 - 19:58 25.6°C / 44.5%
h2-hermonville 05-08-2026 - 19:54 29°C / 40%
h1-hermonville 05-08-2026 - 19:54 25.2°C / 46%
h3-hermonville 05-08-2026 - 19:50 25.7°C / 44.5%
h4-hermonville 05-08-2026 - 19:48 25.8°C / 44.5%
h2-hermonville 05-08-2026 - 19:44 29.4°C / 38%
h1-hermonville 05-08-2026 - 19:44 25.5°C / 45.5%
h3-hermonville 05-08-2026 - 19:40 25.8°C / 44.5%
h4-hermonville 05-08-2026 - 19:38 25.9°C / 44.5%
h2-hermonville 05-08-2026 - 19:34 30.6°C / 37.5%
h1-hermonville 05-08-2026 - 19:34 25.6°C / 46%
h3-hermonville 05-08-2026 - 19:30 25.8°C / 45%
h4-hermonville 05-08-2026 - 19:28 26°C / 45%
h2-hermonville 05-08-2026 - 19:24 29.6°C / 40%
h1-hermonville 05-08-2026 - 19:24 25.4°C / 47%
h3-hermonville 05-08-2026 - 19:20 25.9°C / 45.5%
h4-hermonville 05-08-2026 - 19:18 26.2°C / 45%
h2-hermonville 05-08-2026 - 19:14 30.7°C / 36.5%
h1-hermonville 05-08-2026 - 19:14 25.7°C / 46.5%
h3-hermonville 05-08-2026 - 19:10 26.3°C / 44.5%
h4-hermonville 05-08-2026 - 19:08 26.5°C / 44.5%
h2-hermonville 05-08-2026 - 19:04 33.3°C / 33%
h1-hermonville 05-08-2026 - 19:04 26°C / 45.5%
h3-hermonville 05-08-2026 - 19:00 26.6°C / 44%
h4-hermonville 05-08-2026 - 18:58 26.6°C / 44.5%
h2-hermonville 05-08-2026 - 18:54 33.6°C / 33%
h3-hermonville 05-08-2026 - 18:50 26.5°C / 45%
h4-hermonville 05-08-2026 - 18:48 26.7°C / 44%
h1-hermonville 05-08-2026 - 18:44 26.4°C / 44.5%
h2-hermonville 05-08-2026 - 18:44 31.6°C / 35%
h3-hermonville 05-08-2026 - 18:40 26.6°C / 42.5%
h4-hermonville 05-08-2026 - 18:38 26.5°C / 43%
h2-hermonville 05-08-2026 - 18:34 29.5°C / 39%
h1-hermonville 05-08-2026 - 18:34 26.2°C / 44%
h3-hermonville 05-08-2026 - 18:30 26.6°C / 43%
h4-hermonville 05-08-2026 - 18:28 26.6°C / 43%
h1-hermonville 05-08-2026 - 18:24 26.5°C / 43.5%
h3-hermonville 05-08-2026 - 18:20 26.7°C / 42.5%
h4-hermonville 05-08-2026 - 18:18 26.8°C / 42.5%
h2-hermonville 05-08-2026 - 18:14 30.3°C / 36.5%
h1-hermonville 05-08-2026 - 18:14 26.6°C / 43%
h4-hermonville 05-08-2026 - 18:08 26.9°C / 42.5%
h2-hermonville 05-08-2026 - 18:04 29.9°C / 38%
h1-hermonville 05-08-2026 - 18:04 26.9°C / 42.5%
h3-hermonville 05-08-2026 - 18:00 27.1°C / 42%
h4-hermonville 05-08-2026 - 17:58 26.9°C / 42%
h1-hermonville 05-08-2026 - 17:54 27.2°C / 41%
h3-hermonville 05-08-2026 - 17:50 26.9°C / 40.5%
h4-hermonville 05-08-2026 - 17:48 26.7°C / 40.5%
h2-hermonville 05-08-2026 - 17:44 28.2°C / 38.5%
h1-hermonville 05-08-2026 - 17:44 27°C / 41%
h3-hermonville 05-08-2026 - 17:40 26.8°C / 41%
h4-hermonville 05-08-2026 - 17:38 26.7°C / 41%
h2-hermonville 05-08-2026 - 17:34 29.5°C / 36.5%
h1-hermonville 05-08-2026 - 17:34 27.2°C / 40.5%
h3-hermonville 05-08-2026 - 17:30 27.2°C / 39.5%
h4-hermonville 05-08-2026 - 17:28 27°C / 41%
h1-hermonville 05-08-2026 - 17:24 27.5°C / 39.5%
h4-hermonville 05-08-2026 - 17:18 26.9°C / 41%
h2-hermonville 05-08-2026 - 17:14 29.3°C / 38%
h1-hermonville 05-08-2026 - 17:14 27.4°C / 41%
h3-hermonville 05-08-2026 - 17:10 27.2°C / 40.5%
h4-hermonville 05-08-2026 - 17:08 27°C / 41%
h2-hermonville 05-08-2026 - 17:04 30.6°C / 35%
h1-hermonville 05-08-2026 - 17:04 27.6°C / 40%
h3-hermonville 05-08-2026 - 17:00 27.3°C / 40%
h4-hermonville 05-08-2026 - 16:58 26.8°C / 40.5%
h2-hermonville 05-08-2026 - 16:54 28.9°C / 37%
h1-hermonville 05-08-2026 - 16:54 27°C / 41%
h3-hermonville 05-08-2026 - 16:50 26.7°C / 40.5%
h4-hermonville 05-08-2026 - 16:48 26.9°C / 42.5%
h2-hermonville 05-08-2026 - 16:44 29.3°C / 38%
h3-hermonville 05-08-2026 - 16:40 26.8°C / 41.5%
h4-hermonville 05-08-2026 - 16:38 26.7°C / 42.5%
h1-hermonville 05-08-2026 - 16:34 27.1°C / 44%
h3-hermonville 05-08-2026 - 16:30 26.8°C / 43.5%
h4-hermonville 05-08-2026 - 16:28 26.9°C / 43.5%
h1-hermonville 05-08-2026 - 16:24 27.2°C / 44%
h3-hermonville 05-08-2026 - 16:20 27.1°C / 43.5%
h4-hermonville 05-08-2026 - 16:18 26.9°C / 44%
h2-hermonville 05-08-2026 - 16:14 27.9°C / 41.5%
h1-hermonville 05-08-2026 - 16:14 27°C / 44.5%
h3-hermonville 05-08-2026 - 16:10 26.7°C / 43.5%
h4-hermonville 05-08-2026 - 16:08 26.9°C / 43%
h2-hermonville 05-08-2026 - 16:04 28.5°C / 41.5%
h1-hermonville 05-08-2026 - 16:04 26.9°C / 44%
h3-hermonville 05-08-2026 - 16:00 27°C / 45%
h4-hermonville 05-08-2026 - 15:58 26.7°C / 46%
h2-hermonville 05-08-2026 - 15:54 27.9°C / 44.5%
h1-hermonville 05-08-2026 - 15:54 26.8°C / 47.5%
h3-hermonville 05-08-2026 - 15:50 27.1°C / 46%
h2-hermonville 05-08-2026 - 15:44 28°C / 45%
h1-hermonville 05-08-2026 - 15:44 26.8°C / 47.5%
h3-hermonville 05-08-2026 - 15:40 26.8°C / 47%
h4-hermonville 05-08-2026 - 15:38 26.8°C / 47%
h2-hermonville 05-08-2026 - 15:34 27.7°C / 45.5%
h1-hermonville 05-08-2026 - 15:34 26.5°C / 48.5%
h4-hermonville 05-08-2026 - 15:28 26.6°C / 48.5%
h2-hermonville 05-08-2026 - 15:24 27.2°C / 47.5%
h1-hermonville 05-08-2026 - 15:24 26.3°C / 50.5%
h3-hermonville 05-08-2026 - 15:20 26.4°C / 49.5%
h4-hermonville 05-08-2026 - 15:18 26.4°C / 50%
h2-hermonville 05-08-2026 - 15:14 26.9°C / 49.5%
h1-hermonville 05-08-2026 - 15:14 26°C / 52%
h3-hermonville 05-08-2026 - 15:10 26°C / 51.5%
h4-hermonville 05-08-2026 - 15:08 26.3°C / 50.5%
h2-hermonville 05-08-2026 - 15:04 26.5°C / 51.5%
h1-hermonville 05-08-2026 - 15:04 25.7°C / 53.5%
h3-hermonville 05-08-2026 - 15:00 25.7°C / 53%
h4-hermonville 05-08-2026 - 14:58 26.3°C / 51%
h2-hermonville 05-08-2026 - 14:54 26.5°C / 52.5%
h1-hermonville 05-08-2026 - 14:54 25.7°C / 54%
h3-hermonville 05-08-2026 - 14:50 25.5°C / 53.5%
h4-hermonville 05-08-2026 - 14:48 26°C / 51.5%
h2-hermonville 05-08-2026 - 14:44 25.7°C / 53%
h1-hermonville 05-08-2026 - 14:44 25.7°C / 53.5%
h3-hermonville 05-08-2026 - 14:40 25.5°C / 52.5%
h4-hermonville 05-08-2026 - 14:38 25.9°C / 50.5%
h3-hermonville 05-08-2026 - 14:30 25.6°C / 50.5%
h4-hermonville 05-08-2026 - 14:28 25.9°C / 49.5%
h2-hermonville 05-08-2026 - 14:24 26.4°C / 49.5%
h1-hermonville 05-08-2026 - 14:24 25.8°C / 51.5%
h3-hermonville 05-08-2026 - 14:20 25.9°C / 51%
h1-hermonville 05-08-2026 - 14:14 25.3°C / 52.5%
h3-hermonville 05-08-2026 - 14:10 25.6°C / 51%
h4-hermonville 05-08-2026 - 14:08 25.5°C / 51%
h2-hermonville 05-08-2026 - 14:04 25.7°C / 54%
h1-hermonville 05-08-2026 - 14:04 25.1°C / 55.5%
h3-hermonville 05-08-2026 - 14:00 25°C / 54.5%
h4-hermonville 05-08-2026 - 13:58 25.3°C / 53%
h2-hermonville 05-08-2026 - 13:54 25°C / 56%
h1-hermonville 05-08-2026 - 13:54 24.6°C / 57%
h3-hermonville 05-08-2026 - 13:50 24.7°C / 57.5%
h4-hermonville 05-08-2026 - 13:48 25.1°C / 55.5%
h2-hermonville 05-08-2026 - 13:44 24.9°C / 58.5%
h3-hermonville 05-08-2026 - 13:40 24.3°C / 61%
h2-hermonville 05-08-2026 - 13:34 23.9°C / 63%
h1-hermonville 05-08-2026 - 13:34 23.9°C / 62.5%
h3-hermonville 05-08-2026 - 13:30 23.6°C / 63.5%
h1-hermonville 05-08-2026 - 13:24 24.1°C / 61.5%
h3-hermonville 05-08-2026 - 13:20 23.8°C / 63%
h2-hermonville 05-08-2026 - 13:14 23.8°C / 63%
h1-hermonville 05-08-2026 - 13:14 24°C / 62.5%
h3-hermonville 05-08-2026 - 13:10 23.3°C / 64%
h4-hermonville 05-08-2026 - 13:08 24.6°C / 59%
h2-hermonville 05-08-2026 - 13:04 23.6°C / 64.5%
h1-hermonville 05-08-2026 - 13:04 23.8°C / 63%
h3-hermonville 05-08-2026 - 13:00 23.3°C / 63.5%
h4-hermonville 05-08-2026 - 12:58 24.8°C / 57.5%
h2-hermonville 05-08-2026 - 12:54 24.1°C / 60.5%
h3-hermonville 05-08-2026 - 12:50 24.1°C / 60%
h4-hermonville 05-08-2026 - 12:48 25.4°C / 55.5%
h2-hermonville 05-08-2026 - 12:44 24.5°C / 59.5%
h1-hermonville 05-08-2026 - 12:44 24.6°C / 59%
h3-hermonville 05-08-2026 - 12:40 24.3°C / 59.5%
h4-hermonville 05-08-2026 - 12:38 25.8°C / 54.5%
h2-hermonville 05-08-2026 - 12:34 24.6°C / 59%
h1-hermonville 05-08-2026 - 12:34 24.6°C / 59%
h2-hermonville 05-08-2026 - 12:24 24.5°C / 59%
h1-hermonville 05-08-2026 - 12:24 24.6°C / 58.5%
h3-hermonville 05-08-2026 - 12:20 24.5°C / 58.5%
h2-hermonville 05-08-2026 - 12:14 24.7°C / 59%
h1-hermonville 05-08-2026 - 12:14 24.6°C / 59%
h3-hermonville 05-08-2026 - 12:10 24.6°C / 58%
h2-hermonville 05-08-2026 - 12:04 24.7°C / 58.5%
h1-hermonville 05-08-2026 - 12:04 24.5°C / 58.5%
h3-hermonville 05-08-2026 - 12:00 24.6°C / 58.5%
h4-hermonville 05-08-2026 - 11:58 26.8°C / 51.5%
h2-hermonville 05-08-2026 - 11:54 24.5°C / 59%
h1-hermonville 05-08-2026 - 11:54 24.4°C / 59%
h3-hermonville 05-08-2026 - 11:50 24.4°C / 58.5%
h4-hermonville 05-08-2026 - 11:48 27.9°C / 48.5%
h2-hermonville 05-08-2026 - 11:44 24.5°C / 58.5%
h1-hermonville 05-08-2026 - 11:44 24.5°C / 59%
h3-hermonville 05-08-2026 - 11:40 24.5°C / 58.5%
h4-hermonville 05-08-2026 - 11:38 28.8°C / 46.5%
h2-hermonville 05-08-2026 - 11:34 24.4°C / 59%
h1-hermonville 05-08-2026 - 11:34 24.4°C / 59%
h3-hermonville 05-08-2026 - 11:30 24.4°C / 59%
h4-hermonville 05-08-2026 - 11:28 28.6°C / 48%
h2-hermonville 05-08-2026 - 11:24 24.4°C / 61%
h1-hermonville 05-08-2026 - 11:24 24.5°C / 60.5%
h3-hermonville 05-08-2026 - 11:20 24.3°C / 60%
h4-hermonville 05-08-2026 - 11:18 27.4°C / 51%
h2-hermonville 05-08-2026 - 11:14 24.4°C / 61%
h1-hermonville 05-08-2026 - 11:14 24.3°C / 61%
h3-hermonville 05-08-2026 - 11:10 24.3°C / 60.5%
h4-hermonville 05-08-2026 - 11:08 28.7°C / 48.5%
h2-hermonville 05-08-2026 - 11:04 24.2°C / 61.5%
h1-hermonville 05-08-2026 - 11:04 24.2°C / 61%
h3-hermonville 05-08-2026 - 11:00 24.2°C / 62%
h4-hermonville 05-08-2026 - 10:58 29.9°C / 46%
h2-hermonville 05-08-2026 - 10:54 24.2°C / 63%
h1-hermonville 05-08-2026 - 10:54 24.2°C / 63%
h3-hermonville 05-08-2026 - 10:50 23.9°C / 63.5%
h4-hermonville 05-08-2026 - 10:48 28.5°C / 49%
h2-hermonville 05-08-2026 - 10:44 23.9°C / 64%
h1-hermonville 05-08-2026 - 10:44 23.9°C / 64%
h3-hermonville 05-08-2026 - 10:40 23.8°C / 63.5%
h4-hermonville 05-08-2026 - 10:38 28.5°C / 50%
h2-hermonville 05-08-2026 - 10:34 23.4°C / 66%
h1-hermonville 05-08-2026 - 10:34 23.5°C / 65%
h2-hermonville 05-08-2026 - 10:24 23.4°C / 66%
h1-hermonville 05-08-2026 - 10:24 23.4°C / 65%
h4-hermonville 05-08-2026 - 10:18 28.1°C / 50.5%
h1-hermonville 05-08-2026 - 10:14 23.5°C / 65%
h3-hermonville 05-08-2026 - 10:10 23.3°C / 66%
h4-hermonville 05-08-2026 - 10:08 29.5°C / 47%
h2-hermonville 05-08-2026 - 10:04 23.2°C / 67%
h1-hermonville 05-08-2026 - 10:04 23.2°C / 66.5%
h3-hermonville 05-08-2026 - 10:00 22.8°C / 67%
h4-hermonville 05-08-2026 - 09:58 30.1°C / 46%
h2-hermonville 05-08-2026 - 09:54 22.9°C / 68%
h1-hermonville 05-08-2026 - 09:54 23°C / 67%
h3-hermonville 05-08-2026 - 09:50 22.7°C / 67.5%
h4-hermonville 05-08-2026 - 09:48 30.4°C / 45.5%
h1-hermonville 05-08-2026 - 09:44 22.9°C / 67.5%
h3-hermonville 05-08-2026 - 09:40 22.5°C / 68%
h4-hermonville 05-08-2026 - 09:38 29.7°C / 47%
h2-hermonville 05-08-2026 - 09:34 22.4°C / 69%
h1-hermonville 05-08-2026 - 09:34 22.6°C / 67.5%
h3-hermonville 05-08-2026 - 09:30 22.5°C / 68.5%
h4-hermonville 05-08-2026 - 09:28 30.1°C / 46%
h2-hermonville 05-08-2026 - 09:24 22.2°C / 69%
h1-hermonville 05-08-2026 - 09:24 22.7°C / 67.5%
h3-hermonville 05-08-2026 - 09:20 22.2°C / 69%
h4-hermonville 05-08-2026 - 09:18 28.9°C / 49%
h2-hermonville 05-08-2026 - 09:14 21.9°C / 69.5%
h1-hermonville 05-08-2026 - 09:14 22.3°C / 68%
h3-hermonville 05-08-2026 - 09:10 22°C / 69%
h4-hermonville 05-08-2026 - 09:08 28.6°C / 49.5%
h1-hermonville 05-08-2026 - 09:04 22.2°C / 68.5%
h3-hermonville 05-08-2026 - 09:00 21.8°C / 69%
h4-hermonville 05-08-2026 - 08:58 28°C / 50.5%
h2-hermonville 05-08-2026 - 08:54 21.7°C / 70%
h1-hermonville 05-08-2026 - 08:54 22.1°C / 68%
h3-hermonville 05-08-2026 - 08:50 21.7°C / 69.5%
h4-hermonville 05-08-2026 - 08:48 26.7°C / 53.5%
h2-hermonville 05-08-2026 - 08:44 21.5°C / 69.5%
h1-hermonville 05-08-2026 - 08:44 22°C / 68%
h3-hermonville 05-08-2026 - 08:40 21.6°C / 69%
h4-hermonville 05-08-2026 - 08:38 25.4°C / 56.5%
h2-hermonville 05-08-2026 - 08:34 21.5°C / 69%
h1-hermonville 05-08-2026 - 08:34 22°C / 67%
h3-hermonville 05-08-2026 - 08:30 21.5°C / 68.5%
h4-hermonville 05-08-2026 - 08:28 23.9°C / 60%
h2-hermonville 05-08-2026 - 08:24 21.4°C / 69.5%
h1-hermonville 05-08-2026 - 08:24 21.9°C / 67.5%
h3-hermonville 05-08-2026 - 08:20 21.3°C / 69%
h4-hermonville 05-08-2026 - 08:18 23.3°C / 61.5%
h2-hermonville 05-08-2026 - 08:14 21.2°C / 70%
h1-hermonville 05-08-2026 - 08:14 21.7°C / 67.5%
h3-hermonville 05-08-2026 - 08:10 21.2°C / 69.5%
h2-hermonville 05-08-2026 - 08:04 21.2°C / 70%
h1-hermonville 05-08-2026 - 08:04 21.9°C / 66.5%
h3-hermonville 05-08-2026 - 08:00 21.2°C / 69.5%
h4-hermonville 05-08-2026 - 07:58 22.9°C / 62%
h2-hermonville 05-08-2026 - 07:54 20.9°C / 70.5%
h1-hermonville 05-08-2026 - 07:54 21.8°C / 67%
h3-hermonville 05-08-2026 - 07:50 21°C / 69.5%
h4-hermonville 05-08-2026 - 07:48 22.9°C / 62.5%
h2-hermonville 05-08-2026 - 07:44 20.8°C / 71%
h3-hermonville 05-08-2026 - 07:40 21°C / 69.5%
h4-hermonville 05-08-2026 - 07:38 22.6°C / 63.5%
h2-hermonville 05-08-2026 - 07:34 20.6°C / 71%
h1-hermonville 05-08-2026 - 07:34 21.7°C / 66.5%
h3-hermonville 05-08-2026 - 07:30 20.9°C / 69%
h4-hermonville 05-08-2026 - 07:28 22.3°C / 63.5%
h2-hermonville 05-08-2026 - 07:24 20.7°C / 70.5%
h1-hermonville 05-08-2026 - 07:24 21.7°C / 67%
h4-hermonville 05-08-2026 - 07:18 22.3°C / 63.5%
h2-hermonville 05-08-2026 - 07:14 20.8°C / 70%
h1-hermonville 05-08-2026 - 07:14 21.7°C / 66.5%
h3-hermonville 05-08-2026 - 07:10 21°C / 68.5%
h4-hermonville 05-08-2026 - 07:08 22.4°C / 63%
h2-hermonville 05-08-2026 - 07:04 20.7°C / 70%
h1-hermonville 05-08-2026 - 07:04 22°C / 66%
h3-hermonville 05-08-2026 - 07:00 21.2°C / 67.5%
h4-hermonville 05-08-2026 - 06:58 22.4°C / 63%
h2-hermonville 05-08-2026 - 06:54 20.8°C / 70%
h1-hermonville 05-08-2026 - 06:54 22°C / 65.5%
h3-hermonville 05-08-2026 - 06:50 21.4°C / 67%
h4-hermonville 05-08-2026 - 06:48 22.4°C / 63%
h2-hermonville 05-08-2026 - 06:44 21.1°C / 69%
h3-hermonville 05-08-2026 - 06:40 21.5°C / 67%
h4-hermonville 05-08-2026 - 06:38 22.5°C / 63%
h2-hermonville 05-08-2026 - 06:34 21.1°C / 69%
h1-hermonville 05-08-2026 - 06:34 22.2°C / 65.5%
h3-hermonville 05-08-2026 - 06:30 21.5°C / 67.5%
h4-hermonville 05-08-2026 - 06:28 22.6°C / 62.5%
h1-hermonville 05-08-2026 - 06:24 22.2°C / 65%
h3-hermonville 05-08-2026 - 06:20 21.6°C / 67%
h4-hermonville 05-08-2026 - 06:18 22.7°C / 62.5%
h2-hermonville 05-08-2026 - 06:14 21.3°C / 68.5%
h1-hermonville 05-08-2026 - 06:14 22.4°C / 65%
h3-hermonville 05-08-2026 - 06:10 21.9°C / 66.5%
h4-hermonville 05-08-2026 - 06:08 22.8°C / 62.5%
h2-hermonville 05-08-2026 - 06:04 21.4°C / 68.5%
h1-hermonville 05-08-2026 - 06:04 22.5°C / 65%
h3-hermonville 05-08-2026 - 06:00 22°C / 66%
h4-hermonville 05-08-2026 - 05:58 22.8°C / 62.5%
h2-hermonville 05-08-2026 - 05:54 21.5°C / 68.5%
h1-hermonville 05-08-2026 - 05:54 22.5°C / 65%
h3-hermonville 05-08-2026 - 05:50 22.1°C / 66%
h4-hermonville 05-08-2026 - 05:48 22.9°C / 62.5%
h2-hermonville 05-08-2026 - 05:44 21.6°C / 68.5%
h1-hermonville 05-08-2026 - 05:44 22.6°C / 65%
h3-hermonville 05-08-2026 - 05:40 22.1°C / 66%
h4-hermonville 05-08-2026 - 05:38 23.1°C / 62%
h2-hermonville 05-08-2026 - 05:34 21.6°C / 68.5%
h1-hermonville 05-08-2026 - 05:34 22.7°C / 64.5%
h3-hermonville 05-08-2026 - 05:30 22.6°C / 65%
h4-hermonville 05-08-2026 - 05:28 23.2°C / 62%
h2-hermonville 05-08-2026 - 05:24 21.7°C / 68%
h1-hermonville 05-08-2026 - 05:24 22.9°C / 64.5%
h3-hermonville 05-08-2026 - 05:20 22.6°C / 65%
h4-hermonville 05-08-2026 - 05:18 23.2°C / 62%
h2-hermonville 05-08-2026 - 05:14 22°C / 67.5%
h1-hermonville 05-08-2026 - 05:14 23°C / 64.5%
h3-hermonville 05-08-2026 - 05:10 22.5°C / 65.5%
h4-hermonville 05-08-2026 - 05:08 23.4°C / 62%
h2-hermonville 05-08-2026 - 05:04 22.2°C / 67.5%
h1-hermonville 05-08-2026 - 05:04 23.1°C / 64.5%
h3-hermonville 05-08-2026 - 05:00 22.6°C / 65.5%
h4-hermonville 05-08-2026 - 04:58 23.5°C / 62%
h2-hermonville 05-08-2026 - 04:54 22.4°C / 67%
h1-hermonville 05-08-2026 - 04:54 23.2°C / 64.5%
h3-hermonville 05-08-2026 - 04:50 22.8°C / 65%
h4-hermonville 05-08-2026 - 04:48 23.5°C / 62%
h2-hermonville 05-08-2026 - 04:44 22.6°C / 66.5%
h1-hermonville 05-08-2026 - 04:44 23.3°C / 64%
h3-hermonville 05-08-2026 - 04:40 22.8°C / 65%
h4-hermonville 05-08-2026 - 04:38 23.5°C / 62%
h2-hermonville 05-08-2026 - 04:34 22.7°C / 66.5%
h1-hermonville 05-08-2026 - 04:34 23.4°C / 64%
h3-hermonville 05-08-2026 - 04:30 23°C / 64.5%
h4-hermonville 05-08-2026 - 04:28 23.5°C / 62.5%
h2-hermonville 05-08-2026 - 04:24 22.9°C / 66.5%
h1-hermonville 05-08-2026 - 04:24 23.4°C / 64%
h3-hermonville 05-08-2026 - 04:20 23.2°C / 64.5%
h4-hermonville 05-08-2026 - 04:18 23.4°C / 63%
h2-hermonville 05-08-2026 - 04:14 22.9°C / 66.5%
h1-hermonville 05-08-2026 - 04:14 23.5°C / 64%
h3-hermonville 05-08-2026 - 04:10 23.3°C / 64.5%
h4-hermonville 05-08-2026 - 04:08 23.5°C / 63%
h2-hermonville 05-08-2026 - 04:04 22.8°C / 67%
h1-hermonville 05-08-2026 - 04:04 23.5°C / 64.5%
h3-hermonville 05-08-2026 - 04:00 23.2°C / 65%
h4-hermonville 05-08-2026 - 03:58 23.6°C / 63%
h2-hermonville 05-08-2026 - 03:54 22.7°C / 66.5%
h1-hermonville 05-08-2026 - 03:54 23.4°C / 64.5%
h3-hermonville 05-08-2026 - 03:50 23.2°C / 65%
h4-hermonville 05-08-2026 - 03:48 23.5°C / 62.5%
h2-hermonville 05-08-2026 - 03:44 22.8°C / 66.5%
h1-hermonville 05-08-2026 - 03:44 23.5°C / 64%
h3-hermonville 05-08-2026 - 03:40 23.2°C / 64.5%
h4-hermonville 05-08-2026 - 03:38 23.5°C / 62.5%
h2-hermonville 05-08-2026 - 03:34 22.8°C / 66.5%
h1-hermonville 05-08-2026 - 03:34 23.4°C / 64%
h3-hermonville 05-08-2026 - 03:30 23.3°C / 64.5%
h4-hermonville 05-08-2026 - 03:28 23.7°C / 62%
h2-hermonville 05-08-2026 - 03:24 22.8°C / 67%
h1-hermonville 05-08-2026 - 03:24 23.5°C / 64%
h3-hermonville 05-08-2026 - 03:20 23.1°C / 65%
h4-hermonville 05-08-2026 - 03:18 23.8°C / 62%
h2-hermonville 05-08-2026 - 03:14 22.7°C / 67%
h1-hermonville 05-08-2026 - 03:14 23.5°C / 63.5%
h3-hermonville 05-08-2026 - 03:10 22.9°C / 65.5%
h4-hermonville 05-08-2026 - 03:08 23.9°C / 61.5%
h2-hermonville 05-08-2026 - 03:04 22.7°C / 67%
h1-hermonville 05-08-2026 - 03:04 23.7°C / 63.5%
h3-hermonville 05-08-2026 - 03:00 23.2°C / 64.5%
h4-hermonville 05-08-2026 - 02:58 24°C / 61%
h2-hermonville 05-08-2026 - 02:54 23°C / 66%
h1-hermonville 05-08-2026 - 02:54 23.8°C / 63%
h3-hermonville 05-08-2026 - 02:50 23.5°C / 63.5%
h2-hermonville 05-08-2026 - 02:44 23.4°C / 64.5%
h1-hermonville 05-08-2026 - 02:44 24°C / 62.5%
h3-hermonville 05-08-2026 - 02:40 23.8°C / 62.5%
h4-hermonville 05-08-2026 - 02:38 24.2°C / 60.5%
h2-hermonville 05-08-2026 - 02:34 23.7°C / 63%
h1-hermonville 05-08-2026 - 02:34 24.1°C / 61.5%
h3-hermonville 05-08-2026 - 02:30 24°C / 61.5%
h4-hermonville 05-08-2026 - 02:28 24.3°C / 60%
h2-hermonville 05-08-2026 - 02:24 23.9°C / 62.5%
h1-hermonville 05-08-2026 - 02:24 24.2°C / 61%
h3-hermonville 05-08-2026 - 02:20 24.2°C / 61%
h4-hermonville 05-08-2026 - 02:18 24.6°C / 59%
h2-hermonville 05-08-2026 - 02:14 24°C / 62%
h1-hermonville 05-08-2026 - 02:14 24.4°C / 60.5%
h3-hermonville 05-08-2026 - 02:10 24.1°C / 61%
h4-hermonville 05-08-2026 - 02:08 24.6°C / 58.5%
h2-hermonville 05-08-2026 - 02:04 24°C / 61.5%
h1-hermonville 05-08-2026 - 02:04 24.4°C / 60%
h3-hermonville 05-08-2026 - 02:00 24.3°C / 60%
h4-hermonville 05-08-2026 - 01:58 24.7°C / 58%
h2-hermonville 05-08-2026 - 01:54 24.1°C / 61%
h1-hermonville 05-08-2026 - 01:54 24.5°C / 59.5%
h3-hermonville 05-08-2026 - 01:50 24.2°C / 60%
h4-hermonville 05-08-2026 - 01:48 24.6°C / 57.5%
h2-hermonville 05-08-2026 - 01:44 24.1°C / 60.5%
h1-hermonville 05-08-2026 - 01:44 24.6°C / 59%
h3-hermonville 05-08-2026 - 01:40 24.2°C / 59.5%
h4-hermonville 05-08-2026 - 01:38 24.7°C / 57%
h2-hermonville 05-08-2026 - 01:34 23.9°C / 60%
h1-hermonville 05-08-2026 - 01:34 24.5°C / 58.5%
h3-hermonville 05-08-2026 - 01:30 24.2°C / 58.5%
h4-hermonville 05-08-2026 - 01:28 24.8°C / 55.5%
h2-hermonville 05-08-2026 - 01:24 23.9°C / 59.5%
h1-hermonville 05-08-2026 - 01:24 24.5°C / 57.5%
h3-hermonville 05-08-2026 - 01:20 24°C / 57.5%
h4-hermonville 05-08-2026 - 01:18 24.7°C / 54.5%
h2-hermonville 05-08-2026 - 01:14 24.1°C / 58%
h1-hermonville 05-08-2026 - 01:14 24.5°C / 56.5%
h3-hermonville 05-08-2026 - 01:10 24.3°C / 56.5%
h4-hermonville 05-08-2026 - 01:08 24.9°C / 54%
h2-hermonville 05-08-2026 - 01:04 24.4°C / 56%
h1-hermonville 05-08-2026 - 01:04 24.7°C / 55.5%
h3-hermonville 05-08-2026 - 01:00 24.4°C / 55%
h4-hermonville 05-08-2026 - 00:58 25°C / 53%
h2-hermonville 05-08-2026 - 00:54 24.5°C / 54.5%
h1-hermonville 05-08-2026 - 00:54 24.8°C / 54%
h3-hermonville 05-08-2026 - 00:50 24.7°C / 54%
h4-hermonville 05-08-2026 - 00:48 25.2°C / 52%
h2-hermonville 05-08-2026 - 00:44 24.9°C / 53.5%
h1-hermonville 05-08-2026 - 00:44 24.9°C / 53%
h3-hermonville 05-08-2026 - 00:40 24.8°C / 53%
h4-hermonville 05-08-2026 - 00:38 25.3°C / 51%
h2-hermonville 05-08-2026 - 00:34 25.1°C / 52.5%
h1-hermonville 05-08-2026 - 00:34 25.1°C / 52%
h3-hermonville 05-08-2026 - 00:30 25°C / 51.5%
h4-hermonville 05-08-2026 - 00:28 25.4°C / 50%
h2-hermonville 05-08-2026 - 00:24 25.3°C / 51.5%
h1-hermonville 05-08-2026 - 00:24 25.2°C / 51.5%
h3-hermonville 05-08-2026 - 00:20 25.1°C / 50.5%
h4-hermonville 05-08-2026 - 00:18 25.5°C / 49.5%
h2-hermonville 05-08-2026 - 00:14 25.3°C / 50.5%
h1-hermonville 05-08-2026 - 00:14 25.3°C / 50.5%
h3-hermonville 05-08-2026 - 00:10 25.3°C / 50%
h4-hermonville 05-08-2026 - 00:08 25.6°C / 49%
h2-hermonville 05-08-2026 - 00:04 25.4°C / 49.5%
h1-hermonville 05-08-2026 - 00:04 25.5°C / 50%
h3-hermonville 05-08-2026 - 00:00 25.4°C / 49.5%